Time;durP1;ratioP1;P1;durP2;ratioP2;P2;SDS_P1;SDS_P2;PMS_P1;PMS_P2;Temp;Humidity;BMP_temperature;BMP_pressure;BME280_temperature;BME280_humidity;BME280_pressure;Samples;Min_cycle;Max_cycle;Signal;HPM_P1;HPM_P2
2022/11/26 00:00:59;;;;;;;;;;;;;;;21.77;37.15;95586.16;6096768;19;2111;-63
2022/11/26 00:03:02;;;;;;;;;;;;;;;21.77;36.93;95588.84;6121977;19;1937;-63
2022/11/26 00:05:06;;;;;;;;;;;;;;;21.74;36.85;95592.78;6123325;19;1903;-62
2022/11/26 00:07:10;;;;;;;;;;;;;;;21.76;36.88;95590.69;6124805;19;2061;-63
2022/11/26 00:09:16;;;;;;;;;;;;;;;21.74;37.28;95586.56;6127019;19;2105;-62
2022/11/26 00:11:19;;;;;;;;;;;;;;;21.77;37.10;95589.69;6107589;19;1767;-63
2022/11/26 00:13:23;;;;;;;;;;;;;;;21.78;37.22;95591.31;6110922;19;2265;-63
2022/11/26 00:15:28;;;;;;;;;;;;;;;21.78;37.16;95587.81;6123506;19;1739;-63
2022/11/26 00:17:34;;;;;;;;;;;;;;;21.77;37.26;95589.69;6123359;19;2174;-63
2022/11/26 00:19:37;;;;;;;;;;;;;;;21.74;37.27;95583.91;6123148;19;2001;-63
2022/11/26 00:21:42;;;;;;;;;;;;;;;21.77;36.99;95579.00;6121655;19;2114;-63
2022/11/26 00:23:45;;;;;;;;;;;;;;;21.75;37.07;95575.69;6097239;19;1867;-63
2022/11/26 00:25:50;;;;;;;;;;;;;;;21.76;37.14;95580.00;6123071;19;1920;-62
2022/11/26 00:27:55;;;;;;;;;;;;;;;21.77;37.16;95578.13;6124157;19;1879;-62
2022/11/26 00:29:58;;;;;;;;;;;;;;;21.74;37.12;95581.22;6122487;19;2113;-61
2022/11/26 00:32:01;;;;;;;;;;;;;;;21.71;36.98;95577.09;6123817;19;2068;-61
2022/11/26 00:34:07;;;;;;;;;;;;;;;21.75;37.49;95582.88;6110425;19;1831;-63
2022/11/26 00:36:17;;;;;;;;;;;;;;;21.73;37.29;95575.06;6108432;19;2090;-62
2022/11/26 00:38:21;;;;;;;;;;;;;;;21.77;37.18;95576.31;6125200;19;1916;-63
2022/11/26 00:40:26;;;;;;;;;;;;;;;21.74;37.22;95570.53;6122967;19;1911;-61
2022/11/26 00:42:29;;;;;;;;;;;;;;;21.76;37.43;95579.19;6124890;19;1853;-62
2022/11/26 00:44:33;;;;;;;;;;;;;;;21.76;37.17;95584.53;6123408;19;1657;-63
2022/11/26 00:46:36;;;;;;;;;;;;;;;21.75;37.21;95581.03;6094561;19;2105;-63
2022/11/26 00:48:40;;;;;;;;;;;;;;;21.76;38.21;95592.56;6123448;19;2091;-63
2022/11/26 00:50:48;;;;;;;;;;;;;;;21.77;37.97;95583.50;6123192;19;1918;-63
2022/11/26 00:52:53;;;;;;;;;;;;;;;21.80;38.29;95593.81;6125266;19;1906;-63
2022/11/26 00:54:56;;;;;;;;;;;;;;;21.81;38.19;95587.41;6124335;19;2089;-63
2022/11/26 00:56:59;;;;;;;;;;;;;;;21.78;37.78;95595.84;6110119;19;1864;-63
2022/11/26 00:59:03;;;;;;;;;;;;;;;21.76;38.02;95596.03;6110606;19;2092;-63
2022/11/26 01:01:06;;;;;;;;;;;;;;;21.76;37.86;95589.88;6120798;19;1924;-63
2022/11/26 01:03:09;;;;;;;;;;;;;;;21.74;38.59;95590.09;6122175;19;1820;-63
2022/11/26 01:05:13;;;;;;;;;;;;;;;21.75;38.29;95591.75;6123328;19;1906;-63
2022/11/26 01:07:19;;;;;;;;;;;;;;;21.80;38.11;95589.28;6122123;19;1934;-63
2022/11/26 01:09:23;;;;;;;;;;;;;;;21.78;37.79;95598.53;6093548;19;1993;-63
2022/11/26 01:11:27;;;;;;;;;;;;;;;21.77;38.94;95588.84;6122642;19;2012;-64
2022/11/26 01:13:30;;;;;;;;;;;;;;;21.76;38.06;95589.88;6123202;19;2132;-63
2022/11/26 01:15:34;;;;;;;;;;;;;;;21.76;37.89;95590.69;6119837;19;1236;-63
2022/11/26 01:17:37;;;;;;;;;;;;;;;21.85;37.81;95594.00;6122562;19;2163;-65
2022/11/26 01:19:40;;;;;;;;;;;;;;;21.82;38.03;95610.47;6110432;19;1850;-63
2022/11/26 01:21:44;;;;;;;;;;;;;;;21.83;38.52;95614.78;6107857;19;2194;-62
2022/11/26 01:23:50;;;;;;;;;;;;;;;21.81;38.47;95615.00;6119649;19;2096;-62
2022/11/26 01:25:53;;;;;;;;;;;;;;;21.76;38.32;95620.13;6121973;19;1923;-63
2022/11/26 01:27:57;;;;;;;;;;;;;;;21.81;37.89;95619.53;6123375;19;1841;-62
2022/11/26 01:30:00;;;;;;;;;;;;;;;21.77;38.00;95611.09;6120044;19;1897;-62
2022/11/26 01:32:03;;;;;;;;;;;;;;;21.76;38.44;95621.97;6095040;19;2217;-63
2022/11/26 01:34:07;;;;;;;;;;;;;;;21.72;37.98;95616.22;6121709;19;2115;-63
2022/11/26 01:36:21;;;;;;;;;;;;;;;21.73;38.33;95615.19;6119713;19;1921;-63
2022/11/26 01:38:24;;;;;;;;;;;;;;;21.74;38.33;95619.53;6120393;19;1938;-62
2022/11/26 01:40:36;;;;;;;;;;;;;;;21.74;38.22;95618.66;6122632;19;1815;-62
2022/11/26 01:42:44;;;;;;;;;;;;;;;21.73;38.08;95612.50;6100406;19;1921;-63
2022/11/26 01:44:47;;;;;;;;;;;;;;;21.73;37.95;95619.72;6120706;19;1870;-63
2022/11/26 01:46:51;;;;;;;;;;;;;;;21.73;37.76;95625.06;6120201;19;2161;-63
2022/11/26 01:48:55;;;;;;;;;;;;;;;21.75;37.89;95620.34;6121852;19;1874;-62
2022/11/26 01:50:59;;;;;;;;;;;;;;;21.75;37.83;95626.50;6121365;19;2033;-62
2022/11/26 01:53:05;;;;;;;;;;;;;;;21.74;37.70;95624.03;6120888;19;2093;-62
2022/11/26 01:55:11;;;;;;;;;;;;;;;21.74;37.83;95616.84;6093501;19;2125;-62
2022/11/26 01:57:19;;;;;;;;;;;;;;;21.74;37.53;95624.03;6123122;19;1923;-62
2022/11/26 01:59:25;;;;;;;;;;;;;;;21.75;37.54;95620.34;6121477;19;1883;-62
2022/11/26 02:01:28;;;;;;;;;;;;;;;21.72;37.94;95615.41;6120783;19;2198;-62
2022/11/26 02:03:34;;;;;;;;;;;;;;;21.71;37.93;95624.44;6121252;19;2079;-62
2022/11/26 02:05:40;;;;;;;;;;;;;;;21.73;37.82;95623.19;6092139;19;1373;-62
2022/11/26 02:07:44;;;;;;;;;;;;;;;21.73;37.76;95615.19;6122702;19;2093;-62
2022/11/26 02:09:48;;;;;;;;;;;;;;;21.73;37.76;95617.84;6120422;19;1891;-62
2022/11/26 02:11:51;;;;;;;;;;;;;;;21.72;37.27;95626.91;6120950;19;1920;-62
2022/11/26 02:13:59;;;;;;;;;;;;;;;21.71;37.58;95619.09;6119961;19;1023;-62
2022/11/26 02:16:10;;;;;;;;;;;;;;;21.64;37.90;95611.06;6112797;19;1430;-63
2022/11/26 02:18:14;;;;;;;;;;;;;;;21.68;37.88;95621.16;6106683;19;1999;-63
2022/11/26 02:20:34;;;;;;;;;;;;;;;21.72;37.44;95632.28;6119435;19;1276;-64
2022/11/26 02:22:54;;;;;;;;;;;;;;;21.68;37.67;95631.84;6121363;19;1886;-62
2022/11/26 02:25:07;;;;;;;;;;;;;;;21.67;37.86;95624.03;6121366;19;2067;-62
2022/11/26 02:27:24;;;;;;;;;;;;;;;21.71;37.66;95625.25;6118659;19;1907;-63
2022/11/26 02:29:34;;;;;;;;;;;;;;;21.70;37.95;95625.47;6104188;19;2106;-63
2022/11/26 02:31:43;;;;;;;;;;;;;;;21.71;38.19;95627.09;6119894;19;2199;-63
2022/11/26 02:33:49;;;;;;;;;;;;;;;21.68;37.88;95614.97;6121967;19;2081;-62
2022/11/26 02:35:55;;;;;;;;;;;;;;;21.70;37.77;95617.44;6121507;19;2126;-61
2022/11/26 02:38:02;;;;;;;;;;;;;;;21.68;37.77;95613.13;6117255;19;1809;-62
2022/11/26 02:40:06;;;;;;;;;;;;;;;21.67;37.92;95622.16;6093300;19;1963;-62
2022/11/26 02:42:22;;;;;;;;;;;;;;;21.71;37.48;95619.09;6117459;19;1959;-62
2022/11/26 02:44:27;;;;;;;;;;;;;;;21.61;37.43;95614.97;6118568;19;1750;-62
2022/11/26 02:46:30;;;;;;;;;;;;;;;21.65;37.76;95616.22;6117444;19;1029;-62
2022/11/26 02:48:38;;;;;;;;;;;;;;;21.68;37.93;95623.84;6119954;19;2099;-62
2022/11/26 02:50:44;;;;;;;;;;;;;;;21.68;37.60;95625.66;6104611;19;2066;-62
2022/11/26 02:52:50;;;;;;;;;;;;;;;21.68;37.81;95629.19;6114390;19;2139;-61
2022/11/26 02:54:54;;;;;;;;;;;;;;;21.70;37.73;95633.50;6120714;19;1891;-62
2022/11/26 02:56:58;;;;;;;;;;;;;;;21.71;38.09;95627.09;6117389;19;1058;-63
2022/11/26 02:59:02;;;;;;;;;;;;;;;21.68;38.04;95631.84;6118897;19;1145;-63
2022/11/26 03:01:08;;;;;;;;;;;;;;;21.70;37.96;95628.16;6118226;19;1929;-64
2022/11/26 03:03:21;;;;;;;;;;;;;;;21.74;37.82;95638.25;6091629;19;2091;-63
2022/11/26 03:05:27;;;;;;;;;;;;;;;21.71;37.63;95630.59;6118380;19;1077;-64
2022/11/26 03:07:32;;;;;;;;;;;;;;;21.69;37.57;95635.34;6119360;19;1933;-63
2022/11/26 03:09:42;;;;;;;;;;;;;;;21.66;37.86;95627.75;6120493;19;1902;-63
2022/11/26 03:11:46;;;;;;;;;;;;;;;21.71;37.69;95637.81;6119298;19;1912;-63
2022/11/26 03:13:50;;;;;;;;;;;;;;;21.71;38.09;95637.81;6092985;19;1929;-64
2022/11/26 03:15:53;;;;;;;;;;;;;;;21.68;37.73;95637.22;6117078;19;1768;-63
2022/11/26 03:17:57;;;;;;;;;;;;;;;21.66;37.60;95639.25;6118456;19;1911;-63
2022/11/26 03:20:00;;;;;;;;;;;;;;;21.68;37.46;95642.56;6127723;19;1978;-63
2022/11/26 03:22:06;;;;;;;;;;;;;;;21.68;37.43;95650.59;6123826;19;2168;-63
2022/11/26 03:24:09;;;;;;;;;;;;;;;21.68;37.89;95650.59;6126571;19;1933;-63
2022/11/26 03:26:13;;;;;;;;;;;;;;;21.65;37.58;95656.34;6098741;19;2097;-63
2022/11/26 03:28:16;;;;;;;;;;;;;;;21.66;37.63;95652.63;6124687;19;2102;-63
2022/11/26 03:30:19;;;;;;;;;;;;;;;21.68;37.75;95660.44;6123701;19;1882;-63
2022/11/26 03:32:23;;;;;;;;;;;;;;;21.68;37.55;95668.44;6123882;19;1906;-63
2022/11/26 03:34:26;;;;;;;;;;;;;;;21.71;37.23;95667.22;6124169;19;2003;-63
2022/11/26 03:36:29;;;;;;;;;;;;;;;21.70;38.10;95671.75;6096115;19;1449;-64
2022/11/26 03:38:35;;;;;;;;;;;;;;;21.67;37.91;95675.66;6123883;19;1822;-64
2022/11/26 03:40:39;;;;;;;;;;;;;;;21.75;37.65;95685.34;6123784;19;2223;-64
2022/11/26 03:42:42;;;;;;;;;;;;;;;21.71;37.71;95683.28;6125388;19;2128;-63
2022/11/26 03:44:45;;;;;;;;;;;;;;;21.71;37.86;95685.94;6123846;19;2134;-65
2022/11/26 03:46:48;;;;;;;;;;;;;;;21.73;37.94;95686.59;6123882;19;1926;-63
2022/11/26 03:48:52;;;;;;;;;;;;;;;21.77;37.73;95685.13;6096417;19;1674;-64
2022/11/26 03:50:55;;;;;;;;;;;;;;;21.79;37.81;95685.75;6122076;19;1037;-64
2022/11/26 03:52:58;;;;;;;;;;;;;;;21.78;38.02;95694.81;6123922;19;1828;-64
2022/11/26 03:55:04;;;;;;;;;;;;;;;21.79;37.98;95693.78;6121959;19;1897;-64
2022/11/26 03:57:08;;;;;;;;;;;;;;;21.78;37.99;95690.28;6125812;19;1642;-63
2022/11/26 03:59:11;;;;;;;;;;;;;;;21.78;38.05;95700.19;6095005;19;2091;-63
2022/11/26 04:01:15;;;;;;;;;;;;;;;21.75;37.54;95697.91;6121977;19;2148;-64
2022/11/26 04:03:18;;;;;;;;;;;;;;;21.80;37.94;95706.16;6123061;19;1935;-65
2022/11/26 04:05:21;;;;;;;;;;;;;;;21.83;37.42;95701.22;6123947;19;1913;-65
2022/11/26 04:07:25;;;;;;;;;;;;;;;21.82;37.38;95704.09;6123869;19;2096;-66
2022/11/26 04:09:28;;;;;;;;;;;;;;;21.84;37.59;95704.72;6125417;19;2162;-65
2022/11/26 04:11:34;;;;;;;;;;;;;;;21.84;37.29;95704.72;6098114;19;2102;-65
2022/11/26 04:13:37;;;;;;;;;;;;;;;21.83;37.69;95711.91;6125836;19;1921;-65
2022/11/26 04:15:40;;;;;;;;;;;;;;;21.83;37.74;95713.78;6123484;19;1866;-65
2022/11/26 04:17:44;;;;;;;;;;;;;;;21.80;37.71;95719.53;6121559;19;1914;-63
2022/11/26 04:19:47;;;;;;;;;;;;;;;21.79;37.37;95721.34;6124024;19;1842;-65
2022/11/26 04:21:50;;;;;;;;;;;;;;;21.80;37.59;95724.88;6107595;19;2007;-65
2022/11/26 04:23:54;;;;;;;;;;;;;;;21.80;37.59;95732.91;6108582;19;1918;-65
2022/11/26 04:25:57;;;;;;;;;;;;;;;21.82;37.71;95722.81;6123071;19;2064;-63
2022/11/26 04:28:03;;;;;;;;;;;;;;;21.77;37.64;95730.63;6124379;19;1772;-64
2022/11/26 04:30:07;;;;;;;;;;;;;;;21.75;37.40;95738.03;6119473;19;1913;-64
2022/11/26 04:32:10;;;;;;;;;;;;;;;21.73;37.42;95740.06;6126250;19;2236;-63
2022/11/26 04:34:13;;;;;;;;;;;;;;;21.75;37.35;95735.38;6096113;19;2230;-63
2022/11/26 04:36:17;;;;;;;;;;;;;;;21.72;37.53;95731.22;6121104;19;1665;-63
2022/11/26 04:38:20;;;;;;;;;;;;;;;21.73;37.89;95735.53;6123408;19;1904;-64
2022/11/26 04:40:23;;;;;;;;;;;;;;;21.74;37.77;95736.38;6120766;19;2040;-64
2022/11/26 04:42:27;;;;;;;;;;;;;;;21.73;37.45;95743.56;6120719;19;2133;-63
2022/11/26 04:44:32;;;;;;;;;;;;;;;21.71;37.76;95752.81;6110264;19;1872;-64
2022/11/26 04:46:36;;;;;;;;;;;;;;;21.70;37.51;95749.31;6109440;19;2195;-64
2022/11/26 04:48:39;;;;;;;;;;;;;;;21.73;37.82;95756.94;6123194;19;1866;-62
2022/11/26 04:50:42;;;;;;;;;;;;;;;21.73;37.97;95758.81;6123642;19;2077;-62
2022/11/26 04:52:47;;;;;;;;;;;;;;;21.74;37.73;95763.97;6122419;19;1927;-63
2022/11/26 04:54:50;;;;;;;;;;;;;;;21.72;38.03;95757.97;6123700;19;1833;-63
2022/11/26 04:56:53;;;;;;;;;;;;;;;21.74;37.79;95763.97;6095982;19;2152;-63
2022/11/26 04:58:57;;;;;;;;;;;;;;;21.72;37.68;95765.19;6122978;19;1617;-63
2022/11/26 05:01:03;;;;;;;;;;;;;;;21.68;38.03;95765.59;6124562;19;1738;-62
2022/11/26 05:03:06;;;;;;;;;;;;;;;21.70;37.65;95773.41;6120648;19;2138;-62
2022/11/26 05:05:09;;;;;;;;;;;;;;;21.75;37.60;95770.13;6119439;19;1925;-62
2022/11/26 05:07:13;;;;;;;;;;;;;;;21.75;37.63;95770.97;6106651;19;2076;-62
2022/11/26 05:09:16;;;;;;;;;;;;;;;21.75;37.32;95770.97;6106152;19;1994;-62
2022/11/26 05:11:19;;;;;;;;;;;;;;;21.77;37.76;95781.44;6119648;19;1070;-62
2022/11/26 05:13:23;;;;;;;;;;;;;;;21.75;37.50;95773.63;6121770;19;2110;-61
2022/11/26 05:15:26;;;;;;;;;;;;;;;21.70;37.67;95778.75;6121344;19;2069;-61
2022/11/26 05:17:32;;;;;;;;;;;;;;;21.73;37.54;95777.53;6120185;19;1880;-61
2022/11/26 05:19:35;;;;;;;;;;;;;;;21.75;37.59;95780.84;6095163;19;2034;-62
2022/11/26 05:21:39;;;;;;;;;;;;;;;21.74;37.29;95792.53;6118796;19;1065;-61
2022/11/26 05:23:42;;;;;;;;;;;;;;;21.70;37.33;95788.63;6122770;19;1846;-63
2022/11/26 05:25:46;;;;;;;;;;;;;;;21.71;37.87;95779.56;6121741;19;2089;-62
2022/11/26 05:27:49;;;;;;;;;;;;;;;21.72;37.42;95787.41;6121140;19;1951;-62
2022/11/26 05:29:53;;;;;;;;;;;;;;;21.70;37.52;95788.63;6109069;19;2085;-62
2022/11/26 05:31:56;;;;;;;;;;;;;;;21.70;37.43;95788.63;6107950;19;1849;-63
2022/11/26 05:34:02;;;;;;;;;;;;;;;21.70;37.57;95794.81;6121847;19;1920;-62
2022/11/26 05:36:05;;;;;;;;;;;;;;;21.75;37.34;95791.53;6121431;19;1730;-65
2022/11/26 05:38:09;;;;;;;;;;;;;;;21.76;37.48;95788.66;6123458;19;2027;-65
2022/11/26 05:40:13;;;;;;;;;;;;;;;21.80;37.41;95791.78;6120281;19;1136;-66
2022/11/26 05:42:17;;;;;;;;;;;;;;;21.79;37.06;95795.44;6093690;19;1861;-65
2022/11/26 05:44:20;;;;;;;;;;;;;;;21.79;36.99;95803.47;6122785;19;1730;-65
2022/11/26 05:46:24;;;;;;;;;;;;;;;21.77;37.25;95798.34;6122664;19;2004;-66
2022/11/26 05:48:27;;;;;;;;;;;;;;;21.75;37.32;95796.88;6122693;19;1768;-66
2022/11/26 05:50:33;;;;;;;;;;;;;;;21.79;36.77;95803.47;6121977;19;1798;-65
2022/11/26 05:52:36;;;;;;;;;;;;;;;21.78;37.23;95799.16;6109394;19;1928;-62
2022/11/26 05:54:40;;;;;;;;;;;;;;;21.75;37.40;95803.06;6108250;19;2150;-62
2022/11/26 05:56:43;;;;;;;;;;;;;;;21.76;37.13;95801.19;6121006;19;1995;-63
2022/11/26 05:58:46;;;;;;;;;;;;;;;21.79;37.17;95806.16;6122344;19;1886;-64
2022/11/26 06:00:50;;;;;;;;;;;;;;;21.76;37.42;95806.56;6121241;19;1916;-63
2022/11/26 06:02:53;;;;;;;;;;;;;;;21.76;37.26;95809.22;6120814;19;1926;-64
2022/11/26 06:04:56;;;;;;;;;;;;;;;21.77;37.43;95813.53;6094017;19;2159;-63
2022/11/26 06:07:02;;;;;;;;;;;;;;;21.77;37.27;95816.22;6120386;19;1658;-64
2022/11/26 06:09:06;;;;;;;;;;;;;;;21.78;37.48;95816.03;6120675;19;2161;-63
2022/11/26 06:11:12;;;;;;;;;;;;;;;21.76;37.38;95817.25;6120561;19;1693;-63
2022/11/26 06:13:15;;;;;;;;;;;;;;;21.76;37.26;95823.41;6122553;19;1875;-63
2022/11/26 06:15:19;;;;;;;;;;;;;;;21.75;37.39;95818.28;6108986;19;2116;-63
2022/11/26 06:17:22;;;;;;;;;;;;;;;21.76;37.14;95819.94;6107555;19;2001;-63
2022/11/26 06:19:25;;;;;;;;;;;;;;;21.76;37.17;95826.09;6121483;19;2094;-61
2022/11/26 06:21:29;;;;;;;;;;;;;;;21.76;37.47;95819.94;6118009;19;1685;-64
2022/11/26 06:23:36;;;;;;;;;;;;;;;21.78;37.26;95824.06;6117645;19;1845;-65
2022/11/26 06:25:41;;;;;;;;;;;;;;;21.75;36.89;95829.81;6122389;19;2106;-64
2022/11/26 06:27:45;;;;;;;;;;;;;;;21.75;37.29;95823.63;6094295;19;2153;-63
2022/11/26 06:29:48;;;;;;;;;;;;;;;21.73;37.08;95825.69;6118811;19;1886;-63
2022/11/26 06:31:51;;;;;;;;;;;;;;;21.74;37.16;95821.97;6119812;19;2176;-64
2022/11/26 06:33:55;;;;;;;;;;;;;;;21.76;37.23;95825.28;6120460;19;1631;-64
2022/11/26 06:36:00;;;;;;;;;;;;;;;21.77;37.15;95826.91;6116997;19;2094;-63
2022/11/26 06:38:03;;;;;;;;;;;;;;;21.74;36.84;95832.66;6118584;19;1848;-63
2022/11/26 06:40:10;;;;;;;;;;;;;;;20.62;31.68;95831.69;6093227;19;1655;-62
2022/11/26 06:42:14;;;;;;;;;;;;;;;18.41;34.00;95833.38;6117689;19;1669;-62
2022/11/26 06:44:17;;;;;;;;;;;;;;;16.78;33.55;95835.72;6120869;19;2082;-63
2022/11/26 06:46:21;;;;;;;;;;;;;;;16.74;33.38;95835.19;6119229;19;1873;-63
2022/11/26 06:48:25;;;;;;;;;;;;;;;15.90;33.48;95838.09;6120614;19;1902;-61
2022/11/26 06:50:28;;;;;;;;;;;;;;;16.35;33.08;95835.03;6091405;19;1649;-62
2022/11/26 06:52:31;;;;;;;;;;;;;;;15.75;32.75;95837.88;6120254;19;1932;-62
2022/11/26 06:54:35;;;;;;;;;;;;;;;15.70;32.27;95837.53;6125682;19;1961;-61
2022/11/26 06:56:41;;;;;;;;;;;;;;;15.37;32.20;95837.41;6125047;19;1694;-62
2022/11/26 06:58:45;;;;;;;;;;;;;;;14.67;33.24;95832.16;6125221;19;1789;-61
2022/11/26 07:00:48;;;;;;;;;;;;;;;14.57;33.25;95834.91;6126108;19;1625;-61
2022/11/26 07:02:52;;;;;;;;;;;;;;;14.87;33.02;95838.94;6096504;19;1851;-61
2022/11/26 07:04:55;;;;;;;;;;;;;;;16.23;32.71;95837.19;6122083;19;1871;-62
2022/11/26 07:06:58;;;;;;;;;;;;;;;18.06;31.90;95841.75;6126286;19;1692;-62
2022/11/26 07:09:05;;;;;;;;;;;;;;;19.20;31.21;95849.84;6122691;19;1049;-62
2022/11/26 07:11:09;;;;;;;;;;;;;;;19.87;29.58;95847.09;6124010;19;1674;-62
2022/11/26 07:13:15;;;;;;;;;;;;;;;20.30;28.84;95847.16;6101848;19;1994;-61
2022/11/26 07:15:18;;;;;;;;;;;;;;;20.63;28.77;95840.53;6122019;19;2105;-61
2022/11/26 07:17:22;;;;;;;;;;;;;;;20.85;28.74;95844.00;6121588;19;970;-63
2022/11/26 07:19:25;;;;;;;;;;;;;;;21.06;28.54;95843.97;6124020;19;1918;-63
2022/11/26 07:21:29;;;;;;;;;;;;;;;21.18;28.49;95844.28;6122994;19;1924;-62
2022/11/26 07:23:32;;;;;;;;;;;;;;;21.32;28.86;95846.03;6123839;19;2096;-64
2022/11/26 07:25:35;;;;;;;;;;;;;;;21.43;28.86;95848.16;6097053;19;2002;-63
2022/11/26 07:27:38;;;;;;;;;;;;;;;21.52;28.72;95848.81;6124073;19;1796;-62
2022/11/26 07:29:44;;;;;;;;;;;;;;;21.60;28.78;95845.19;6127062;19;2077;-63
2022/11/26 07:31:48;;;;;;;;;;;;;;;21.67;29.26;95846.84;6121757;19;1080;-63
2022/11/26 07:33:51;;;;;;;;;;;;;;;21.73;29.30;95844.41;6121551;19;962;-62
2022/11/26 07:35:55;;;;;;;;;;;;;;;21.76;29.06;95852.03;6108639;19;2170;-63
2022/11/26 07:37:58;;;;;;;;;;;;;;;21.81;29.28;95853.09;6109315;19;2093;-63
2022/11/26 07:40:01;;;;;;;;;;;;;;;21.85;29.65;95851.69;6122843;19;1046;-63
2022/11/26 07:42:05;;;;;;;;;;;;;;;21.89;29.53;95846.75;6120429;19;994;-63
2022/11/26 07:44:08;;;;;;;;;;;;;;;21.96;29.56;95857.50;6120515;19;1847;-63
2022/11/26 07:46:15;;;;;;;;;;;;;;;21.97;29.64;95854.63;6122799;19;2084;-62
2022/11/26 07:48:18;;;;;;;;;;;;;;;21.98;29.84;95858.94;6094726;19;2206;-63
2022/11/26 07:50:21;;;;;;;;;;;;;;;22.03;30.41;95858.38;6122972;19;1918;-62
2022/11/26 07:52:25;;;;;;;;;;;;;;;22.05;30.30;95867.84;6121025;19;1914;-63
2022/11/26 07:54:28;;;;;;;;;;;;;;;22.06;30.61;95869.50;6124553;19;978;-62
2022/11/26 07:56:31;;;;;;;;;;;;;;;22.09;30.70;95861.06;6120414;19;1141;-62
2022/11/26 07:58:34;;;;;;;;;;;;;;;22.12;30.98;95860.66;6109545;19;2106;-63
2022/11/26 08:00:38;;;;;;;;;;;;;;;22.16;30.98;95865.59;6109178;19;2238;-63
2022/11/26 08:02:44;;;;;;;;;;;;;;;22.13;31.25;95873.00;6123633;19;2215;-64
2022/11/26 08:04:47;;;;;;;;;;;;;;;22.13;30.95;95881.03;6119498;19;1946;-64
2022/11/26 08:06:50;;;;;;;;;;;;;;;22.12;31.27;95882.06;6123297;19;1974;-64
2022/11/26 08:08:54;;;;;;;;;;;;;;;22.08;31.15;95880.81;6122950;19;1898;-63
2022/11/26 08:10:57;;;;;;;;;;;;;;;22.10;31.42;95873.41;6099006;19;2174;-64
2022/11/26 08:13:00;;;;;;;;;;;;;;;22.09;31.17;95877.13;6122503;19;1923;-63
2022/11/26 08:15:04;;;;;;;;;;;;;;;22.09;31.13;95877.13;6121268;19;970;-63
2022/11/26 08:17:07;;;;;;;;;;;;;;;22.05;31.48;95859.81;6121439;19;2064;-64
2022/11/26 08:19:15;;;;;;;;;;;;;;;22.05;31.24;95846.44;6121873;19;1930;-63
2022/11/26 08:21:18;;;;;;;;;;;;;;;22.02;31.55;95862.88;6109407;19;2098;-63
2022/11/26 08:23:21;;;;;;;;;;;;;;;22.01;31.42;95866.56;6106631;19;1833;-63
2022/11/26 08:25:25;;;;;;;;;;;;;;;22.04;32.00;95868.03;6123362;19;2235;-62
2022/11/26 08:27:28;;;;;;;;;;;;;;;21.99;32.15;95865.94;6122727;19;1352;-63
2022/11/26 08:29:31;;;;;;;;;;;;;;;22.03;32.05;95875.25;6120202;19;1082;-63
2022/11/26 08:31:35;;;;;;;;;;;;;;;22.08;32.11;95867.44;6120581;19;974;-62
2022/11/26 08:33:38;;;;;;;;;;;;;;;22.04;32.05;95881.41;6094966;19;2183;-63
2022/11/26 08:35:44;;;;;;;;;;;;;;;22.03;32.29;95879.78;6121189;19;1427;-63
2022/11/26 08:37:47;;;;;;;;;;;;;;;22.01;32.57;95879.13;6120448;19;991;-62
2022/11/26 08:39:50;;;;;;;;;;;;;;;22.03;32.29;95869.06;6120120;19;992;-63
2022/11/26 08:41:54;;;;;;;;;;;;;;;22.01;32.39;95874.59;6119648;19;1124;-63
2022/11/26 08:43:57;;;;;;;;;;;;;;;22.03;32.91;95875.25;6120197;19;1865;-62
2022/11/26 08:46:01;;;;;;;;;;;;;;;22.00;32.54;95882.84;6094184;19;2030;-62
2022/11/26 08:48:04;;;;;;;;;;;;;;;22.00;32.67;95881.00;6120219;19;1916;-63
2022/11/26 08:50:09;;;;;;;;;;;;;;;22.02;32.87;95878.91;6119079;19;1034;-63
2022/11/26 08:52:15;;;;;;;;;;;;;;;21.97;32.94;95876.03;6120874;19;2283;-63
2022/11/26 08:54:18;;;;;;;;;;;;;;;21.97;33.31;95884.06;6123017;19;1844;-63
2022/11/26 08:56:21;;;;;;;;;;;;;;;22.02;33.00;95884.28;6104522;19;2128;-64
2022/11/26 08:58:25;;;;;;;;;;;;;;;22.03;33.00;95885.13;6117542;19;2098;-64
2022/11/26 09:00:28;;;;;;;;;;;;;;;22.03;32.92;95883.28;6121640;19;2001;-64
2022/11/26 09:02:31;;;;;;;;;;;;;;;22.07;32.84;95886.38;6122175;19;2033;-63
2022/11/26 09:04:35;;;;;;;;;;;;;;;22.03;32.67;95887.81;6117945;19;1878;-64
2022/11/26 09:06:39;;;;;;;;;;;;;;;22.01;32.75;95888.00;6118203;19;978;-64
2022/11/26 09:11:03;;;;;;;;;;;;;;;22.01;32.67;95881.81;6118743;19;1094;-64
2022/11/26 09:13:06;;;;;;;;;;;;;;;22.00;32.30;95883.66;6120094;19;1013;-63
2022/11/26 09:15:11;;;;;;;;;;;;;;;21.93;32.31;95880.09;6118781;19;903;-63
2022/11/26 09:17:14;;;;;;;;;;;;;;;21.99;32.67;95879.31;6118196;19;978;-64
2022/11/26 09:19:18;;;;;;;;;;;;;;;22.02;32.31;95886.13;6105400;19;1244;-63
2022/11/26 09:21:23;;;;;;;;;;;;;;;21.97;32.32;95883.22;6107773;19;2037;-63
2022/11/26 09:23:26;;;;;;;;;;;;;;;21.97;32.29;95886.75;6121103;19;1050;-64
2022/11/26 09:25:32;;;;;;;;;;;;;;;21.96;32.70;95881.59;6119204;19;1865;-64
2022/11/26 09:27:36;;;;;;;;;;;;;;;21.96;32.64;95879.72;6119456;19;1136;-64
2022/11/26 09:29:39;;;;;;;;;;;;;;;21.95;32.30;95878.09;6119546;19;987;-64
2022/11/26 09:31:42;;;;;;;;;;;;;;;21.97;32.28;95870.69;6094527;19;2015;-64
2022/11/26 09:33:46;;;;;;;;;;;;;;;21.97;32.47;95870.69;6118195;19;1295;-64
2022/11/26 09:35:49;;;;;;;;;;;;;;;21.99;32.76;95871.28;6118431;19;1127;-63
2022/11/26 09:37:52;;;;;;;;;;;;;;;21.97;32.54;95870.69;6120644;19;1060;-64
2022/11/26 09:39:56;;;;;;;;;;;;;;;21.99;32.50;95873.97;6118154;19;1037;-63
2022/11/26 09:42:06;;;;;;;;;;;;;;;21.99;32.56;95871.28;6105805;19;1075;-63
2022/11/26 09:44:21;;;;;;;;;;;;;;;21.99;32.40;95865.94;6105313;19;1850;-63
2022/11/26 09:46:27;;;;;;;;;;;;;;;21.98;32.37;95861.63;6118516;19;978;-63
2022/11/26 09:48:32;;;;;;;;;;;;;;;21.97;32.46;95862.66;6119209;19;1084;-64
2022/11/26 09:50:37;;;;;;;;;;;;;;;22.00;32.26;95864.94;6117339;19;1054;-63
2022/11/26 09:52:43;;;;;;;;;;;;;;;21.99;32.77;95857.91;6119810;19;1037;-63
2022/11/26 09:54:47;;;;;;;;;;;;;;;21.98;32.31;95858.94;6093245;19;1319;-63
2022/11/26 09:56:52;;;;;;;;;;;;;;;21.98;32.78;95855.47;6119762;19;1924;-64
2022/11/26 09:59:00;;;;;;;;;;;;;;;21.96;32.70;95862.84;6122410;19;2019;-64
2022/11/26 10:01:06;;;;;;;;;;;;;;;21.95;32.39;95856.69;6122056;19;1856;-64
2022/11/26 10:03:14;;;;;;;;;;;;;;;21.94;32.39;95849.66;6120053;19;1852;-64
2022/11/26 10:05:18;;;;;;;;;;;;;;;22.01;32.92;95847.84;6103985;19;1850;-64
2022/11/26 10:07:37;;;;;;;;;;;;;;;21.92;32.98;95840.16;6109329;19;1317;-64
2022/11/26 10:09:54;;;;;;;;;;;;;;;21.96;32.97;95836.09;6117908;19;1922;-63
2022/11/26 10:12:02;;;;;;;;;;;;;;;21.99;32.95;95831.16;6121627;19;1675;-63
2022/11/26 10:14:15;;;;;;;;;;;;;;;22.00;32.57;95832.00;6116440;19;1712;-64
2022/11/26 10:16:25;;;;;;;;;;;;;;;21.98;32.59;95832.19;6105593;19;1921;-64
2022/11/26 10:18:35;;;;;;;;;;;;;;;21.98;32.73;95828.69;6101636;19;2034;-63
2022/11/26 10:20:56;;;;;;;;;;;;;;;21.96;32.99;95831.56;6117173;19;1993;-63
2022/11/26 10:23:02;;;;;;;;;;;;;;;21.96;32.61;95830.75;6117398;19;2077;-64
2022/11/26 10:25:15;;;;;;;;;;;;;;;21.94;33.02;95830.06;6118230;19;1849;-63
2022/11/26 10:27:19;;;;;;;;;;;;;;;21.94;32.66;95825.56;6118485;19;1727;-63
2022/11/26 10:29:27;;;;;;;;;;;;;;;21.92;32.85;95824.13;6090369;19;1543;-63
2022/11/26 10:31:33;;;;;;;;;;;;;;;21.91;32.84;95825.97;6117610;19;1868;-64
2022/11/26 10:33:39;;;;;;;;;;;;;;;21.89;32.91;95820.00;6118636;19;2041;-63
2022/11/26 10:35:44;;;;;;;;;;;;;;;21.85;32.71;95819.56;6116619;19;2062;-64
2022/11/26 10:37:51;;;;;;;;;;;;;;;21.85;32.83;95824.06;6115795;19;1873;-63
2022/11/26 10:39:57;;;;;;;;;;;;;;;21.82;33.22;95822.63;6099695;19;2208;-63
2022/11/26 10:42:05;;;;;;;;;;;;;;;21.82;33.16;95814.59;6113337;19;2101;-63
2022/11/26 10:44:23;;;;;;;;;;;;;;;21.83;32.83;95815.44;6116167;19;1849;-64
2022/11/26 10:46:34;;;;;;;;;;;;;;;21.83;32.78;95804.75;6117823;19;1910;-64
2022/11/26 10:48:38;;;;;;;;;;;;;;;21.79;32.92;95812.31;6114681;19;2097;-63
2022/11/26 10:50:42;;;;;;;;;;;;;;;21.71;33.59;95811.66;6118029;19;1902;-63
2022/11/26 10:52:47;;;;;;;;;;;;;;;21.72;33.83;95818.69;6092179;19;2228;-63
2022/11/26 10:55:07;;;;;;;;;;;;;;;21.76;33.99;95818.06;6116945;19;2075;-62
2022/11/26 10:57:14;;;;;;;;;;;;;;;21.78;33.68;95817.88;6115338;19;2065;-63
2022/11/26 10:59:20;;;;;;;;;;;;;;;21.82;33.17;95819.13;6116825;19;1859;-63
2022/11/26 11:01:31;;;;;;;;;;;;;;;21.86;33.14;95817.72;6115803;19;1912;-62